Time;durP1;ratioP1;P1;durP2;ratioP2;P2;SDS_P1;SDS_P2;PMS_P1;PMS_P2;Temp;Humidity;BMP_temperature;BMP_pressure;BME280_temperature;BME280_humidity;BME280_pressure;Samples;Min_cycle;Max_cycle;Signal;HPM_P1;HPM_P2
2021/10/16 00:04:03;;;;;;;13.38;8.73;;;;;;;10.31;88.03;100888.06;20824894;28;20065;-70
2021/10/16 00:14:04;;;;;;;14.85;9.30;;;;;;;10.29;88.32;100897.66;20826864;28;20454;-70
2021/10/16 00:24:06;;;;;;;12.27;8.52;;;;;;;10.34;87.33;100882.78;20827876;28;20099;-70
2021/10/16 00:34:07;;;;;;;16.33;10.48;;;;;;;10.22;88.86;100893.31;20822295;28;20103;-72
2021/10/16 00:44:14;;;;;;;15.75;10.77;;;;;;;10.03;89.79;100884.72;20822577;28;20057;-73
2021/10/16 00:54:15;;;;;;;15.35;11.05;;;;;;;9.90;90.36;100880.41;20821418;28;20679;-72
2021/10/16 01:04:17;;;;;;;17.85;12.20;;;;;;;9.92;89.88;100891.75;20820880;28;20052;-72
2021/10/16 01:14:19;;;;;;;18.25;11.52;;;;;;;9.86;90.81;100879.56;20820798;28;20418;-72
2021/10/16 01:24:21;;;;;;;20.80;11.68;;;;;;;9.79;90.70;100883.09;20819198;28;20106;-72
2021/10/16 01:34:22;;;;;;;19.40;11.40;;;;;;;9.69;90.19;100884.88;20817983;28;20590;-71
2021/10/16 01:44:24;;;;;;;17.70;11.45;;;;;;;9.65;89.08;100879.66;20818105;28;20410;-70
2021/10/16 01:54:25;;;;;;;20.55;12.13;;;;;;;9.49;88.66;100864.06;20817707;28;20422;-71
2021/10/16 02:04:27;;;;;;;19.30;11.55;;;;;;;9.31;89.41;100879.78;20817426;28;20049;-71
2021/10/16 02:14:28;;;;;;;21.02;12.30;;;;;;;9.06;89.83;100872.91;20816683;28;20053;-71
2021/10/16 02:24:30;;;;;;;24.30;14.02;;;;;;;8.80;91.27;100868.56;20816502;28;20057;-71
2021/10/16 02:34:32;;;;;;;24.35;15.60;;;;;;;8.56;91.55;100879.00;20832532;28;20041;-70
2021/10/16 02:44:34;;;;;;;26.88;15.65;;;;;;;8.39;92.02;100879.88;20832321;28;20222;-70
2021/10/16 02:54:36;;;;;;;25.35;13.73;;;;;;;8.19;92.73;100873.72;20830382;28;20084;-70
2021/10/16 03:04:37;;;;;;;27.63;15.93;;;;;;;8.04;92.47;100873.69;20829359;28;20049;-70
2021/10/16 03:14:39;;;;;;;25.88;14.15;;;;;;;7.80;93.13;100883.19;20829138;28;20490;-70
2021/10/16 03:24:40;;;;;;;26.58;15.40;;;;;;;7.70;93.27;100882.28;20828695;28;20114;-70
2021/10/16 03:34:41;;;;;;;27.38;14.93;;;;;;;7.59;93.32;100883.13;20827227;28;20045;-69
2021/10/16 03:44:43;;;;;;;26.90;15.32;;;;;;;7.55;93.04;100886.56;20827257;28;20128;-71
2021/10/16 03:54:44;;;;;;;23.45;14.35;;;;;;;7.62;92.83;100894.44;20826460;28;20120;-69
2021/10/16 04:04:46;;;;;;;28.58;16.35;;;;;;;7.65;92.79;100885.75;20825139;28;20465;-70
2021/10/16 04:14:48;;;;;;;28.58;14.40;;;;;;;7.77;92.21;100885.81;20824021;28;20127;-70
2021/10/16 04:24:49;;;;;;;29.40;15.98;;;;;;;7.89;91.90;100893.66;20821985;28;20498;-70
2021/10/16 04:34:50;;;;;;;29.45;15.85;;;;;;;7.85;92.34;100886.69;20822770;28;20506;-70
2021/10/16 04:44:52;;;;;;;28.42;15.40;;;;;;;7.85;92.59;100894.50;20822148;28;20056;-70
2021/10/16 04:54:53;;;;;;;28.02;16.42;;;;;;;7.92;92.38;100887.59;20825279;28;20107;-70
2021/10/16 05:04:55;;;;;;;31.88;18.65;;;;;;;7.92;92.61;100891.06;20820950;28;20085;-70
2021/10/16 05:14:56;;;;;;;31.73;18.10;;;;;;;8.01;92.10;100897.19;20820210;28;20421;-70
2021/10/16 05:24:58;;;;;;;31.73;18.67;;;;;;;7.93;92.18;100910.19;20819681;28;20072;-69
2021/10/16 05:34:59;;;;;;;33.28;18.63;;;;;;;7.85;92.77;100910.13;20818503;28;20054;-69
2021/10/16 05:45:02;;;;;;;34.42;20.70;;;;;;;7.97;92.88;100920.63;20817818;28;20057;-69
2021/10/16 05:55:05;;;;;;;35.83;20.25;;;;;;;7.98;92.67;100924.97;20817979;28;20103;-69
2021/10/16 06:05:07;;;;;;;40.38;21.40;;;;;;;7.89;93.25;100922.31;20819699;28;20115;-69
2021/10/16 06:15:09;;;;;;;34.22;19.50;;;;;;;8.02;92.93;100940.63;20834478;28;20452;-69
2021/10/16 06:25:10;;;;;;;38.05;20.55;;;;;;;7.93;93.35;100950.16;20832879;28;20130;-69
2021/10/16 06:35:12;;;;;;;42.30;21.77;;;;;;;8.15;92.55;100963.28;20831883;28;20091;-70
2021/10/16 06:45:13;;;;;;;37.80;22.08;;;;;;;8.13;92.09;100968.47;20831770;28;20105;-69
2021/10/16 06:55:15;;;;;;;39.35;20.90;;;;;;;8.03;92.96;100974.53;20830156;28;20042;-70
2021/10/16 07:05:16;;;;;;;37.35;21.15;;;;;;;8.15;92.52;100978.94;20824359;28;20938;-70
2021/10/16 07:15:18;;;;;;;38.00;20.98;;;;;;;8.11;92.00;100985.00;20822291;28;20045;-69
2021/10/16 07:25:21;;;;;;;39.08;21.25;;;;;;;8.22;92.15;100998.94;20821604;28;20054;-69
2021/10/16 07:35:22;;;;;;;38.17;22.52;;;;;;;8.23;92.05;101014.59;20820281;28;20041;-69
2021/10/16 07:45:24;;;;;;;46.10;26.30;;;;;;;8.33;91.86;101023.31;20819702;28;20712;-69
2021/10/16 07:55:26;;;;;;;50.33;26.60;;;;;;;8.42;91.61;101026.00;20820448;28;20045;-69
2021/10/16 08:05:27;;;;;;;50.72;26.45;;;;;;;8.42;91.83;101026.00;20818144;28;20458;-68
2021/10/16 08:15:29;;;;;;;53.25;26.23;;;;;;;8.47;92.48;101024.28;20816883;28;20491;-68
2021/10/16 08:25:31;;;;;;;52.65;23.77;;;;;;;8.75;91.93;101029.56;20815012;28;20064;-68
2021/10/16 08:35:33;;;;;;;51.15;22.10;;;;;;;8.91;91.27;101040.91;20815840;28;20049;-68
2021/10/16 08:45:36;;;;;;;55.63;22.17;;;;;;;9.41;90.26;101032.22;20815834;28;20111;-68
2021/10/16 08:55:37;;;;;;;51.15;20.70;;;;;;;9.87;87.20;101037.34;20814183;28;20049;-69
2021/10/16 09:05:39;;;;;;;40.72;18.75;;;;;;;9.88;86.75;101040.00;20814347;28;20445;-68
2021/10/16 09:15:40;;;;;;;33.92;17.70;;;;;;;10.37;85.14;101024.13;20812997;28;20057;-69
2021/10/16 09:25:42;;;;;;;35.30;18.90;;;;;;;10.46;84.38;101034.56;20813651;28;20056;-68
2021/10/16 09:35:44;;;;;;;31.33;18.42;;;;;;;10.60;83.74;101024.00;20814044;28;20057;-69
2021/10/16 09:45:47;;;;;;;33.92;19.27;;;;;;;10.47;84.39;101025.81;20810200;28;20797;-68
2021/10/16 09:55:49;;;;;;;35.38;18.75;;;;;;;10.48;83.63;101017.06;20813273;28;20083;-68
2021/10/16 10:05:51;;;;;;;34.90;18.88;;;;;;;10.23;85.70;101023.28;20809062;28;20077;-68
2021/10/16 10:15:54;;;;;;;32.33;19.00;;;;;;;10.07;85.67;101029.47;20811651;28;20053;-68
2021/10/16 10:26:25;;;;;;;33.55;18.00;;;;;;;10.38;83.96;101014.53;20807814;28;20502;-70
2021/10/16 10:36:26;;;;;;;29.05;17.45;;;;;;;10.45;84.78;101019.72;20809068;28;20049;-71
2021/10/16 10:46:29;;;;;;;31.30;18.25;;;;;;;10.70;83.70;101006.50;20809071;28;20045;-71
2021/10/16 10:56:38;;;;;;;30.08;18.35;;;;;;;10.36;83.61;101006.69;20821012;28;20053;-70
2021/10/16 11:06:56;;;;;;;29.83;17.60;;;;;;;10.60;82.91;100994.34;20823474;28;20053;-71
2021/10/16 11:17:00;;;;;;;28.20;17.60;;;;;;;10.64;82.91;100980.34;20823011;28;20049;-70
2021/10/16 11:27:02;;;;;;;33.77;18.73;;;;;;;10.28;84.94;100971.81;20822804;28;20049;-70
2021/10/16 11:37:05;;;;;;;29.70;18.00;;;;;;;10.55;83.26;100962.09;20822060;28;20045;-70
2021/10/16 11:47:07;;;;;;;32.33;17.88;;;;;;;10.70;82.31;100949.75;20822166;28;20136;-70
2021/10/16 11:57:09;;;;;;;33.60;18.67;;;;;;;10.89;81.95;100942.59;20821818;28;20049;-70
2021/10/16 12:07:10;;;;;;;32.70;19.05;;;;;;;10.77;82.86;100935.69;20817356;28;20123;-72
2021/10/16 12:17:12;;;;;;;32.75;18.23;;;;;;;10.88;82.17;100929.53;20817341;28;20053;-71
2021/10/16 12:27:15;;;;;;;27.40;17.08;;;;;;;10.93;82.35;100923.38;20819590;28;20049;-71
2021/10/16 12:37:16;;;;;;;32.55;18.73;;;;;;;10.78;82.66;100926.97;20815930;28;20064;-70
2021/10/16 12:47:26;;;;;;;30.35;18.75;;;;;;;10.91;81.76;100916.38;20815717;28;20049;-71
2021/10/16 12:57:28;;;;;;;29.33;17.92;;;;;;;11.20;79.91;100918.72;20816391;28;20068;-71
2021/10/16 13:07:35;;;;;;;28.25;16.92;;;;;;;10.74;83.36;100908.69;20812723;28;20142;-67
2021/10/16 13:17:36;;;;;;;27.08;17.38;;;;;;;11.00;81.92;100890.09;20812444;28;20598;-68
2021/10/16 13:27:38;;;;;;;30.75;17.10;;;;;;;10.82;82.48;100891.13;20809983;28;20504;-67
2021/10/16 13:37:39;;;;;;;26.60;16.27;;;;;;;11.02;81.81;100883.97;20809061;28;20457;-68
2021/10/16 13:47:41;;;;;;;28.50;16.10;;;;;;;11.07;81.49;100885.66;20810919;28;20491;-68
2021/10/16 13:57:43;;;;;;;32.03;18.45;;;;;;;11.20;81.10;100884.66;20808088;28;20057;-68
2021/10/16 14:07:44;;;;;;;28.63;16.92;;;;;;;11.14;80.26;100887.34;20810201;28;20051;-68
2021/10/16 14:17:45;;;;;;;29.45;17.77;;;;;;;11.08;80.74;100876.94;20811528;28;20098;-68
2021/10/16 14:27:47;;;;;;;28.38;17.67;;;;;;;11.02;81.48;100873.50;20815955;28;20061;-68
2021/10/16 14:37:49;;;;;;;30.50;18.42;;;;;;;11.17;80.54;100858.50;20825140;28;20046;-67
2021/10/16 14:47:50;;;;;;;31.15;18.73;;;;;;;11.14;81.54;100858.53;20826169;28;20068;-67
2021/10/16 14:57:52;;;;;;;27.45;17.50;;;;;;;10.83;83.48;100863.19;20824957;28;20057;-67
2021/10/16 15:07:53;;;;;;;33.83;20.38;;;;;;;10.70;83.50;100860.69;20820870;28;20052;-67
2021/10/16 15:17:55;;;;;;;31.02;18.90;;;;;;;10.67;84.26;100865.06;20822231;28;20045;-67
2021/10/16 15:27:57;;;;;;;27.38;17.83;;;;;;;10.74;83.79;100861.53;20821101;28;20439;-67
2021/10/16 15:37:59;;;;;;;28.10;17.23;;;;;;;10.70;83.87;100860.69;20835739;23;20112;-80
2021/10/16 15:48:04;;;;;;;26.53;17.43;;;;;;;10.69;83.69;100858.09;20817572;28;20069;-80
2021/10/16 15:58:11;;;;;;;27.85;16.60;;;;;;;10.46;85.28;100860.91;20846205;28;20049;-80
2021/10/16 16:08:13;;;;;;;26.17;15.55;;;;;;;10.15;87.35;100862.81;20852201;28;20053;-80
2021/10/16 16:18:23;;;;;;;26.08;16.02;;;;;;;9.87;88.57;100863.00;20841735;28;20076;-80
2021/10/16 16:28:27;;;;;;;26.38;17.40;;;;;;;9.66;88.85;100865.72;20850407;23;20107;-67
2021/10/16 16:38:29;;;;;;;25.77;15.88;;;;;;;9.39;90.14;100856.22;20832451;28;20049;-70
2021/10/16 16:48:30;;;;;;;27.80;15.65;;;;;;;9.13;91.18;100874.59;20893337;28;20077;-70
2021/10/16 16:58:32;;;;;;;26.67;14.95;;;;;;;8.87;91.36;100882.50;20895172;28;20103;-70
2021/10/16 17:08:33;;;;;;;28.08;16.55;;;;;;;8.73;91.67;100875.53;20894380;28;20045;-70
2021/10/16 17:18:35;;;;;;;24.42;15.85;;;;;;;8.55;92.60;100882.50;20822319;28;20046;-70
2021/10/16 17:28:36;;;;;;;29.25;16.63;;;;;;;8.36;92.31;100874.66;20812319;28;20049;-70
2021/10/16 17:38:40;;;;;;;28.20;16.50;;;;;;;8.18;92.24;100882.41;20811567;28;20090;-69
2021/10/16 17:48:41;;;;;;;28.33;16.77;;;;;;;8.01;92.16;100873.72;20810569;28;20491;-69
2021/10/16 17:58:44;;;;;;;36.10;19.83;;;;;;;7.87;92.06;100881.50;20809374;28;20049;-69
2021/10/16 18:08:45;;;;;;;32.08;20.58;;;;;;;7.69;92.26;100890.09;20842132;28;20128;-69
2021/10/16 18:18:47;;;;;;;33.05;22.27;;;;;;;7.56;91.90;100888.31;20857221;23;20103;-78
2021/10/16 18:28:48;;;;;;;35.42;21.45;;;;;;;7.35;92.11;100905.59;20832021;23;20046;-72
2021/10/16 18:38:50;;;;;;;36.47;24.15;;;;;;;7.24;92.09;100909.88;20808044;28;20061;-71
2021/10/16 18:48:51;;;;;;;34.72;22.73;;;;;;;7.11;92.03;100910.66;20808922;28;20049;-72
2021/10/16 18:58:56;;;;;;;35.17;23.73;;;;;;;7.09;92.64;100912.34;20807276;28;20100;-71
2021/10/16 19:08:57;;;;;;;32.60;21.70;;;;;;;7.04;92.61;100919.25;20805816;28;20119;-73
2021/10/16 19:18:59;;;;;;;37.70;24.65;;;;;;;7.03;93.53;100913.19;20821874;28;20054;-72
2021/10/16 19:29:00;;;;;;;38.92;24.70;;;;;;;7.05;94.14;100910.63;20824505;28;20429;-72
2021/10/16 19:39:03;;;;;;;37.60;23.85;;;;;;;6.97;93.08;100910.56;20821174;28;20115;-73
2021/10/16 19:49:05;;;;;;;39.22;24.67;;;;;;;6.85;92.79;100902.63;20820150;28;20049;-71
2021/10/16 19:59:07;;;;;;;34.60;21.95;;;;;;;6.74;92.69;100910.38;20754185;28;20115;-71
2021/10/16 20:09:08;;;;;;;32.25;21.67;;;;;;;6.60;91.98;100909.38;20734796;28;20520;-71
2021/10/16 20:19:10;;;;;;;40.97;26.63;;;;;;;6.52;92.03;100903.25;20812892;28;20054;-71
2021/10/16 20:29:11;;;;;;;48.22;30.65;;;;;;;6.41;91.97;100904.00;20816354;28;20417;-72
2021/10/16 20:39:13;;;;;;;48.10;29.65;;;;;;;6.28;92.02;100898.72;20815775;28;20413;-71
2021/10/16 20:49:14;;;;;;;44.85;28.42;;;;;;;6.14;91.42;100904.63;20814799;28;20107;-71
2021/10/16 20:59:16;;;;;;;52.03;32.17;;;;;;;6.11;92.04;100904.59;20813815;28;20050;-72
2021/10/16 21:09:17;;;;;;;45.33;28.75;;;;;;;6.04;92.56;100909.72;20813328;28;20053;-73
2021/10/16 21:19:19;;;;;;;38.53;23.88;;;;;;;5.88;93.30;100909.50;20811907;28;20050;-72
2021/10/16 21:29:21;;;;;;;36.85;22.67;;;;;;;5.76;92.88;100898.09;20811834;28;20054;-71
2021/10/16 21:39:23;;;;;;;41.63;24.40;;;;;;;5.72;93.12;100899.78;20812276;28;20049;-71
2021/10/16 21:49:25;;;;;;;37.30;23.15;;;;;;;5.61;92.64;100891.00;20819631;28;20050;-71
2021/10/16 21:59:27;;;;;;;43.00;23.00;;;;;;;5.53;92.98;100892.63;20810701;28;20061;-71
2021/10/16 22:09:28;;;;;;;38.10;23.63;;;;;;;5.39;92.50;100890.72;20814157;28;20084;-71
2021/10/16 22:19:30;;;;;;;40.85;24.17;;;;;;;5.39;92.84;100898.50;20816358;28;20119;-71
2021/10/16 22:29:31;;;;;;;36.97;22.65;;;;;;;5.28;91.22;100884.50;20815345;28;20464;-71
2021/10/16 22:39:33;;;;;;;46.53;26.77;;;;;;;5.23;91.66;100891.38;20817607;28;20439;-71
2021/10/16 22:49:34;;;;;;;38.35;24.27;;;;;;;5.15;92.29;100895.56;20824179;28;20053;-71
2021/10/16 22:59:36;;;;;;;41.13;25.23;;;;;;;5.03;91.78;100898.88;20832099;28;20088;-71
2021/10/16 23:09:37;;;;;;;44.42;26.75;;;;;;;4.97;91.87;100905.69;20831205;28;20421;-71
2021/10/16 23:19:38;;;;;;;39.30;23.88;;;;;;;4.91;91.88;100913.38;20829698;28;20123;-71
2021/10/16 23:29:40;;;;;;;42.60;25.50;;;;;;;4.82;91.15;100908.91;20829496;28;20068;-72
2021/10/16 23:39:41;;;;;;;53.65;31.15;;;;;;;5.02;92.45;100907.50;20828309;28;20469;-71
2021/10/16 23:49:43;;;;;;;106.63;52.13;;;;;;;5.21;93.78;100912.94;20828740;28;20096;-71
2021/10/16 23:59:44;;;;;;;62.65;32.55;;;;;;;5.21;93.83;100911.22;20827841;28;20049;-72
